sensor_id;sensor_type;location;lat;lon;timestamp;pressure;altitude;pressure_sealevel;temperature;humidity
60583;BME280;46415;47.536;19.066;2023-02-21T00:03:13;100345.47;;;8.90;81.33
60583;BME280;46415;47.536;19.066;2023-02-21T00:06:34;100345.47;;;8.90;81.30
60583;BME280;46415;47.536;19.066;2023-02-21T00:09:56;100338.50;;;8.92;80.79
60583;BME280;46415;47.536;19.066;2023-02-21T00:13:17;100337.53;;;8.94;80.32
60583;BME280;46415;47.536;19.066;2023-02-21T00:16:38;100330.97;;;8.86;80.72
60583;BME280;46415;47.536;19.066;2023-02-21T00:20:00;100329.72;;;8.96;79.07
60583;BME280;46415;47.536;19.066;2023-02-21T00:23:21;100325.81;;;8.86;79.37
60583;BME280;46415;47.536;19.066;2023-02-21T00:26:43;100334.28;;;8.66;80.08
60583;BME280;46415;47.536;19.066;2023-02-21T00:30:05;100334.50;;;8.37;82.34
60583;BME280;46415;47.536;19.066;2023-02-21T00:33:27;100329.41;;;8.09;83.89
60583;BME280;46415;47.536;19.066;2023-02-21T00:36:48;100338.22;;;7.77;85.87
60583;BME280;46415;47.536;19.066;2023-02-21T00:40:12;100323.28;;;7.60;88.53
60583;BME280;46415;47.536;19.066;2023-02-21T00:43:34;100332.69;;;7.35;88.73
60583;BME280;46415;47.536;19.066;2023-02-21T00:46:56;100336.00;;;7.11;90.71
60583;BME280;46415;47.536;19.066;2023-02-21T00:50:19;100337.22;;;6.99;91.86
60583;BME280;46415;47.536;19.066;2023-02-21T00:53:40;100334.16;;;6.86;92.23
60583;BME280;46415;47.536;19.066;2023-02-21T00:57:02;100334.78;;;6.94;92.17
60583;BME280;46415;47.536;19.066;2023-02-21T01:00:24;100335.59;;;6.96;91.13
60583;BME280;46415;47.536;19.066;2023-02-21T01:03:45;100328.59;;;7.00;90.35
60583;BME280;46415;47.536;19.066;2023-02-21T01:07:07;100323.06;;;7.12;88.28
60583;BME280;46415;47.536;19.066;2023-02-21T01:10:28;100330.44;;;6.96;88.77
60583;BME280;46415;47.536;19.066;2023-02-21T01:13:49;100325.56;;;6.86;89.86
60583;BME280;46415;47.536;19.066;2023-02-21T01:17:12;100317.53;;;6.96;89.57
60583;BME280;46415;47.536;19.066;2023-02-21T01:20:33;100321.06;;;6.92;89.66
60583;BME280;46415;47.536;19.066;2023-02-21T01:23:55;100323.28;;;6.77;90.83
60583;BME280;46415;47.536;19.066;2023-02-21T01:27:16;100318.72;;;6.55;92.31
60583;BME280;46415;47.536;19.066;2023-02-21T01:30:40;100327.44;;;6.51;92.13
60583;BME280;46415;47.536;19.066;2023-02-21T01:34:01;100328.28;;;6.52;91.54
60583;BME280;46415;47.536;19.066;2023-02-21T01:37:23;100325.81;;;6.49;92.11
60583;BME280;46415;47.536;19.066;2023-02-21T01:40:45;100325.72;;;6.50;93.18
60583;BME280;46415;47.536;19.066;2023-02-21T01:44:33;100319.50;;;6.59;91.91
60583;BME280;46415;47.536;19.066;2023-02-21T01:47:54;100304.41;;;7.32;86.87
60583;BME280;46415;47.536;19.066;2023-02-21T01:51:19;100288.47;;;7.72;83.75
60583;BME280;46415;47.536;19.066;2023-02-21T01:54:45;100285.56;;;7.81;83.13
60583;BME280;46415;47.536;19.066;2023-02-21T01:58:07;100293.22;;;8.09;82.34
60583;BME280;46415;47.536;19.066;2023-02-21T02:01:41;100287.94;;;8.37;79.69
60583;BME280;46415;47.536;19.066;2023-02-21T02:05:07;100296.09;;;8.73;77.54
60583;BME280;46415;47.536;19.066;2023-02-21T02:08:30;100294.50;;;8.92;75.98
60583;BME280;46415;47.536;19.066;2023-02-21T02:28:58;100274.84;;;8.16;79.79
60583;BME280;46415;47.536;19.066;2023-02-21T02:35:33;100266.84;;;8.47;78.69
60583;BME280;46415;47.536;19.066;2023-02-21T02:38:58;100267.84;;;9.12;75.34
60583;BME280;46415;47.536;19.066;2023-02-21T02:42:10;100260.97;;;9.32;74.08
60583;BME280;46415;47.536;19.066;2023-02-21T02:45:55;100261.88;;;9.53;72.63
60583;BME280;46415;47.536;19.066;2023-02-21T02:49:07;100260.06;;;9.75;71.25
60583;BME280;46415;47.536;19.066;2023-02-21T02:52:12;100251.81;;;9.86;70.45
60583;BME280;46415;47.536;19.066;2023-02-21T02:55:29;100262.56;;;9.97;69.68
60583;BME280;46415;47.536;19.066;2023-02-21T02:58:40;100258.94;;;10.01;69.53
60583;BME280;46415;47.536;19.066;2023-02-21T03:08:29;100240.25;;;9.95;70.25
60583;BME280;46415;47.536;19.066;2023-02-21T03:11:42;100250.78;;;10.10;69.52
60583;BME280;46415;47.536;19.066;2023-02-21T03:15:02;100252.34;;;9.94;70.34
60583;BME280;46415;47.536;19.066;2023-02-21T03:21:29;100247.03;;;9.77;72.05
60583;BME280;46415;47.536;19.066;2023-02-21T03:24:36;100249.91;;;9.71;72.57
60583;BME280;46415;47.536;19.066;2023-02-21T03:27:41;100247.31;;;9.71;72.33
60583;BME280;46415;47.536;19.066;2023-02-21T03:30:48;100254.28;;;9.69;72.53
60583;BME280;46415;47.536;19.066;2023-02-21T03:33:53;100256.28;;;9.62;73.03
60583;BME280;46415;47.536;19.066;2023-02-21T03:36:56;100262.19;;;9.24;75.14
60583;BME280;46415;47.536;19.066;2023-02-21T03:40:01;100260.13;;;8.88;77.04
60583;BME280;46415;47.536;19.066;2023-02-21T03:43:06;100270.84;;;8.79;77.63
60583;BME280;46415;47.536;19.066;2023-02-21T03:46:10;100267.53;;;8.52;79.51
60583;BME280;46415;47.536;19.066;2023-02-21T03:49:13;100263.78;;;8.38;80.12
60583;BME280;46415;47.536;19.066;2023-02-21T03:52:16;100266.09;;;8.20;81.67
60583;BME280;46415;47.536;19.066;2023-02-21T03:55:19;100273.28;;;8.12;81.91
60583;BME280;46415;47.536;19.066;2023-02-21T03:58:22;100270.00;;;8.07;82.35
60583;BME280;46415;47.536;19.066;2023-02-21T04:01:26;100268.91;;;8.39;80.64
60583;BME280;46415;47.536;19.066;2023-02-21T04:04:29;100265.13;;;8.48;79.96
60583;BME280;46415;47.536;19.066;2023-02-21T04:07:33;100261.19;;;8.61;79.55
60583;BME280;46415;47.536;19.066;2023-02-21T04:10:36;100263.81;;;8.59;79.60
60583;BME280;46415;47.536;19.066;2023-02-21T04:13:54;100262.22;;;8.79;78.58
60583;BME280;46415;47.536;19.066;2023-02-21T04:16:57;100268.91;;;8.63;79.02
60583;BME280;46415;47.536;19.066;2023-02-21T04:20:00;100276.81;;;8.58;79.40
60583;BME280;46415;47.536;19.066;2023-02-21T04:23:04;100269.34;;;8.50;80.30
60583;BME280;46415;47.536;19.066;2023-02-21T04:26:07;100276.12;;;8.53;79.87
60583;BME280;46415;47.536;19.066;2023-02-21T04:29:11;100273.06;;;8.43;80.60
60583;BME280;46415;47.536;19.066;2023-02-21T04:32:14;100274.84;;;8.41;80.53
60583;BME280;46415;47.536;19.066;2023-02-21T04:35:18;100267.87;;;8.18;82.56
60583;BME280;46415;47.536;19.066;2023-02-21T04:38:21;100268.50;;;8.25;82.26
60583;BME280;46415;47.536;19.066;2023-02-21T04:41:24;100263.31;;;8.02;83.46
60583;BME280;46415;47.536;19.066;2023-02-21T04:44:27;100269.44;;;7.74;85.01
60583;BME280;46415;47.536;19.066;2023-02-21T04:47:30;100266.47;;;7.60;86.02
60583;BME280;46415;47.536;19.066;2023-02-21T04:50:33;100268.41;;;7.54;86.47
60583;BME280;46415;47.536;19.066;2023-02-21T04:53:36;100270.94;;;7.55;87.03
60583;BME280;46415;47.536;19.066;2023-02-21T04:56:42;100264.37;;;7.45;87.33
60583;BME280;46415;47.536;19.066;2023-02-21T04:59:45;100279.62;;;7.53;87.08
60583;BME280;46415;47.536;19.066;2023-02-21T05:02:48;100256.72;;;7.93;84.94
60583;BME280;46415;47.536;19.066;2023-02-21T05:05:51;100252.50;;;8.15;83.72
60583;BME280;46415;47.536;19.066;2023-02-21T05:08:53;100259.97;;;8.23;83.23
60583;BME280;46415;47.536;19.066;2023-02-21T05:11:56;100257.94;;;8.33;82.83
60583;BME280;46415;47.536;19.066;2023-02-21T05:14:59;100270.41;;;8.20;83.54
60583;BME280;46415;47.536;19.066;2023-02-21T05:18:02;100264.34;;;8.46;81.96
60583;BME280;46415;47.536;19.066;2023-02-21T05:21:05;100258.81;;;8.32;82.65
60583;BME280;46415;47.536;19.066;2023-02-21T05:24:08;100253.03;;;8.48;81.57
60583;BME280;46415;47.536;19.066;2023-02-21T05:27:11;100260.22;;;8.40;82.19
60583;BME280;46415;47.536;19.066;2023-02-21T05:30:20;100252.91;;;8.28;83.51
60583;BME280;46415;47.536;19.066;2023-02-21T05:33:24;100253.72;;;8.29;83.02
60583;BME280;46415;47.536;19.066;2023-02-21T05:36:27;100260.22;;;8.40;82.21
60583;BME280;46415;47.536;19.066;2023-02-21T05:39:30;100259.97;;;8.23;83.47
60583;BME280;46415;47.536;19.066;2023-02-21T05:42:36;100257.22;;;8.28;82.76
60583;BME280;46415;47.536;19.066;2023-02-21T05:45:38;100252.47;;;8.40;82.31
60583;BME280;46415;47.536;19.066;2023-02-21T05:48:41;100248.97;;;8.41;82.54
60583;BME280;46415;47.536;19.066;2023-02-21T05:51:44;100253.94;;;8.47;82.07
60583;BME280;46415;47.536;19.066;2023-02-21T05:54:47;100252.12;;;8.49;81.94
60583;BME280;46415;47.536;19.066;2023-02-21T05:57:50;100259.53;;;8.58;80.97
60583;BME280;46415;47.536;19.066;2023-02-21T06:00:53;100262.94;;;8.60;80.83
60583;BME280;46415;47.536;19.066;2023-02-21T06:03:56;100261.37;;;8.56;81.26
60583;BME280;46415;47.536;19.066;2023-02-21T06:06:59;100257.69;;;8.62;81.33
60583;BME280;46415;47.536;19.066;2023-02-21T06:10:03;100265.28;;;8.67;80.84
60583;BME280;46415;47.536;19.066;2023-02-21T06:13:06;100273.28;;;8.60;81.12
60583;BME280;46415;47.536;19.066;2023-02-21T06:16:09;100273.66;;;8.73;80.51
60583;BME280;46415;47.536;19.066;2023-02-21T06:19:13;100273.19;;;8.85;79.84
60583;BME280;46415;47.536;19.066;2023-02-21T06:22:16;100279.00;;;8.92;79.45
60583;BME280;46415;47.536;19.066;2023-02-21T06:25:18;100271.59;;;9.05;78.79
60583;BME280;46415;47.536;19.066;2023-02-21T06:28:27;100280.97;;;9.07;78.92
60583;BME280;46415;47.536;19.066;2023-02-21T06:31:29;100287.19;;;9.03;79.38
60583;BME280;46415;47.536;19.066;2023-02-21T06:34:32;100281.81;;;9.08;79.44
60583;BME280;46415;47.536;19.066;2023-02-21T06:37:35;100277.59;;;9.27;78.48
60583;BME280;46415;47.536;19.066;2023-02-21T06:40:38;100295.97;;;9.42;77.73
60583;BME280;46415;47.536;19.066;2023-02-21T06:43:41;100290.97;;;9.38;77.95
60583;BME280;46415;47.536;19.066;2023-02-21T06:46:44;100293.97;;;9.49;77.75
60583;BME280;46415;47.536;19.066;2023-02-21T06:49:47;100286.72;;;9.57;77.15
60583;BME280;46415;47.536;19.066;2023-02-21T06:52:51;100304.38;;;9.69;76.79
60583;BME280;46415;47.536;19.066;2023-02-21T06:55:53;100300.69;;;9.75;76.97
60583;BME280;46415;47.536;19.066;2023-02-21T06:58:56;100314.03;;;9.86;76.76
60583;BME280;46415;47.536;19.066;2023-02-21T07:01:59;100305.69;;;10.20;74.84
60583;BME280;46415;47.536;19.066;2023-02-21T07:05:05;100307.59;;;10.37;74.66
60583;BME280;46415;47.536;19.066;2023-02-21T07:08:08;100314.78;;;10.49;74.18
60583;BME280;46415;47.536;19.066;2023-02-21T07:11:11;100307.94;;;10.48;74.03
60583;BME280;46415;47.536;19.066;2023-02-21T07:14:15;100315.25;;;10.58;73.25
60583;BME280;46415;47.536;19.066;2023-02-21T07:17:18;100318.53;;;10.62;73.50
60583;BME280;46415;47.536;19.066;2023-02-21T07:20:21;100318.63;;;10.60;73.45
60583;BME280;46415;47.536;19.066;2023-02-21T07:23:24;100325.16;;;10.69;73.65
60583;BME280;46415;47.536;19.066;2023-02-21T07:26:26;100324.63;;;10.61;74.08
60583;BME280;46415;47.536;19.066;2023-02-21T07:29:29;100324.81;;;10.77;73.71
60583;BME280;46415;47.536;19.066;2023-02-21T07:32:32;100322.00;;;10.81;73.19
60583;BME280;46415;47.536;19.066;2023-02-21T07:35:35;100318.22;;;10.88;73.43
60583;BME280;46415;47.536;19.066;2023-02-21T07:38:38;100333.44;;;10.96;73.16
60583;BME280;46415;47.536;19.066;2023-02-21T07:41:41;100325.72;;;11.13;70.99
60583;BME280;46415;47.536;19.066;2023-02-21T07:44:44;100329.69;;;11.20;70.24
60583;BME280;46415;47.536;19.066;2023-02-21T07:47:47;100316.50;;;11.25;69.59
60583;BME280;46415;47.536;19.066;2023-02-21T07:50:54;100328.44;;;11.29;69.02
60583;BME280;46415;47.536;19.066;2023-02-21T07:54:02;100349.53;;;11.40;68.20
60583;BME280;46415;47.536;19.066;2023-02-21T07:57:04;100330.16;;;11.47;67.33
60583;BME280;46415;47.536;19.066;2023-02-21T08:00:09;100322.19;;;11.50;67.19
60583;BME280;46415;47.536;19.066;2023-02-21T08:03:14;100340.31;;;11.52;66.81
60583;BME280;46415;47.536;19.066;2023-02-21T08:06:17;100326.47;;;11.51;66.60
60583;BME280;46415;47.536;19.066;2023-02-21T08:09:20;100332.59;;;11.50;66.61
60583;BME280;46415;47.536;19.066;2023-02-21T08:12:24;100292.41;;;11.57;66.51
60583;BME280;46415;47.536;19.066;2023-02-21T08:15:26;100312.91;;;11.63;66.37
60583;BME280;46415;47.536;19.066;2023-02-21T08:18:30;100315.06;;;11.72;66.85
60583;BME280;46415;47.536;19.066;2023-02-21T08:21:33;100327.78;;;11.78;66.41
60583;BME280;46415;47.536;19.066;2023-02-21T08:24:36;100309.91;;;11.90;66.04
60583;BME280;46415;47.536;19.066;2023-02-21T08:27:39;100312.03;;;11.81;66.47
60583;BME280;46415;47.536;19.066;2023-02-21T08:30:42;100331.13;;;11.80;66.73
60583;BME280;46415;47.536;19.066;2023-02-21T08:33:45;100317.16;;;11.83;66.19
60583;BME280;46415;47.536;19.066;2023-02-21T08:36:48;100317.63;;;11.91;66.08
60583;BME280;46415;47.536;19.066;2023-02-21T08:39:51;100319.16;;;11.95;66.11
60583;BME280;46415;47.536;19.066;2023-02-21T08:42:55;100320.44;;;12.04;66.19
60583;BME280;46415;47.536;19.066;2023-02-21T08:45:58;100316.59;;;12.11;66.32
60583;BME280;46415;47.536;19.066;2023-02-21T08:49:02;100317.06;;;12.19;65.88
60583;BME280;46415;47.536;19.066;2023-02-21T08:52:07;100319.75;;;12.17;66.02
60583;BME280;46415;47.536;19.066;2023-02-21T08:55:11;100319.94;;;12.30;66.25
60583;BME280;46415;47.536;19.066;2023-02-21T08:58:16;100320.72;;;12.32;66.51
60583;BME280;46415;47.536;19.066;2023-02-21T09:01:20;100313.28;;;12.42;65.72
60583;BME280;46415;47.536;19.066;2023-02-21T09:04:24;100297.41;;;12.46;65.59
60583;BME280;46415;47.536;19.066;2023-02-21T09:07:28;100282.00;;;12.26;66.50
60583;BME280;46415;47.536;19.066;2023-02-21T09:10:32;100289.03;;;12.24;67.30
60583;BME280;46415;47.536;19.066;2023-02-21T09:13:35;100313.84;;;12.31;66.99
60583;BME280;46415;47.536;19.066;2023-02-21T09:16:38;100310.31;;;12.32;66.79
60583;BME280;46415;47.536;19.066;2023-02-21T09:19:41;100309.09;;;12.55;66.67
60583;BME280;46415;47.536;19.066;2023-02-21T09:22:44;100306.66;;;12.52;66.24
60583;BME280;46415;47.536;19.066;2023-02-21T09:25:47;100310.03;;;12.69;65.81
60583;BME280;46415;47.536;19.066;2023-02-21T09:28:53;100310.81;;;12.72;65.60
60583;BME280;46415;47.536;19.066;2023-02-21T09:31:56;100314.19;;;12.74;65.33
60583;BME280;46415;47.536;19.066;2023-02-21T09:34:59;100312.56;;;12.71;66.04
60583;BME280;46415;47.536;19.066;2023-02-21T09:38:06;100316.62;;;12.77;65.49
60583;BME280;46415;47.536;19.066;2023-02-21T09:41:11;100314.00;;;12.77;66.33
60583;BME280;46415;47.536;19.066;2023-02-21T09:44:21;100315.22;;;12.87;65.72
60583;BME280;46415;47.536;19.066;2023-02-21T09:47:30;100331.25;;;12.95;65.46
60583;BME280;46415;47.536;19.066;2023-02-21T09:50:42;100336.38;;;12.81;66.15
60583;BME280;46415;47.536;19.066;2023-02-21T09:53:47;100310.16;;;12.84;66.81
60583;BME280;46415;47.536;19.066;2023-02-21T09:56:50;100321.16;;;12.89;66.80
60583;BME280;46415;47.536;19.066;2023-02-21T09:59:53;100325.13;;;12.96;66.49
60583;BME280;46415;47.536;19.066;2023-02-21T10:07:17;100349.69;;;13.23;65.59
60583;BME280;46415;47.536;19.066;2023-02-21T10:13:34;100329.19;;;13.33;64.97
60583;BME280;46415;47.536;19.066;2023-02-21T10:16:50;100334.06;;;13.39;64.93
60583;BME280;46415;47.536;19.066;2023-02-21T10:20:00;100335.41;;;13.30;65.63
60583;BME280;46415;47.536;19.066;2023-02-21T10:23:36;100333.22;;;13.23;65.77
60583;BME280;46415;47.536;19.066;2023-02-21T10:26:44;100320.94;;;13.25;66.08
60583;BME280;46415;47.536;19.066;2023-02-21T10:30:04;100330.62;;;13.38;66.39
60583;BME280;46415;47.536;19.066;2023-02-21T10:33:11;100343.38;;;13.43;65.76
60583;BME280;46415;47.536;19.066;2023-02-21T10:36:18;100316.34;;;13.60;65.87
60583;BME280;46415;47.536;19.066;2023-02-21T10:39:45;100321.50;;;13.61;65.34
60583;BME280;46415;47.536;19.066;2023-02-21T10:42:51;100318.50;;;13.83;65.62
60583;BME280;46415;47.536;19.066;2023-02-21T10:46:09;100332.22;;;13.86;65.13
60583;BME280;46415;47.536;19.066;2023-02-21T10:49:20;100321.16;;;13.97;65.74
60583;BME280;46415;47.536;19.066;2023-02-21T10:52:24;100329.06;;;13.96;65.09
60583;BME280;46415;47.536;19.066;2023-02-21T10:55:27;100316.84;;;13.96;65.53
60583;BME280;46415;47.536;19.066;2023-02-21T10:58:35;100321.44;;;14.07;65.39
60583;BME280;46415;47.536;19.066;2023-02-21T11:01:45;100326.38;;;13.97;64.59
60583;BME280;46415;47.536;19.066;2023-02-21T11:04:48;100317.41;;;13.87;64.85
60583;BME280;46415;47.536;19.066;2023-02-21T11:08:07;100345.53;;;13.66;67.05
60583;BME280;46415;47.536;19.066;2023-02-21T11:11:11;100319.53;;;13.65;65.95
60583;BME280;46415;47.536;19.066;2023-02-21T11:17:27;100325.09;;;13.74;65.47
60583;BME280;46415;47.536;19.066;2023-02-21T11:20:31;100309.03;;;13.66;66.27
60583;BME280;46415;47.536;19.066;2023-02-21T11:23:34;100312.25;;;13.85;65.76
60583;BME280;46415;47.536;19.066;2023-02-21T11:26:51;100311.91;;;13.92;65.15
60583;BME280;46415;47.536;19.066;2023-02-21T11:29:55;100316.00;;;13.66;66.30
60583;BME280;46415;47.536;19.066;2023-02-21T11:32:59;100314.47;;;13.77;66.26
60583;BME280;46415;47.536;19.066;2023-02-21T11:36:12;100311.41;;;13.85;66.10
60583;BME280;46415;47.536;19.066;2023-02-21T11:39:24;100312.44;;;13.82;66.23
60583;BME280;46415;47.536;19.066;2023-02-21T11:42:32;100302.66;;;13.86;66.55
60583;BME280;46415;47.536;19.066;2023-02-21T11:45:37;100304.56;;;13.98;67.27
60583;BME280;46415;47.536;19.066;2023-02-21T11:48:56;100301.13;;;13.98;66.41
60583;BME280;46415;47.536;19.066;2023-02-21T11:52:16;100305.25;;;14.16;66.90
60583;BME280;46415;47.536;19.066;2023-02-21T11:55:23;100291.34;;;14.15;66.42
60583;BME280;46415;47.536;19.066;2023-02-21T11:58:38;100303.69;;;14.27;65.28
60583;BME280;46415;47.536;19.066;2023-02-21T12:15:24;100292.28;;;14.14;66.62
60583;BME280;46415;47.536;19.066;2023-02-21T12:18:41;100291.63;;;14.25;66.44
60583;BME280;46415;47.536;19.066;2023-02-21T12:28:22;100296.59;;;14.29;66.40
60583;BME280;46415;47.536;19.066;2023-02-21T12:35:02;100299.56;;;14.23;66.74
60583;BME280;46415;47.536;19.066;2023-02-21T12:38:09;100292.19;;;14.16;66.66
60583;BME280;46415;47.536;19.066;2023-02-21T12:51:17;100276.38;;;13.89;68.30
60583;BME280;46415;47.536;19.066;2023-02-21T13:01:48;100273.25;;;13.98;68.01
60583;BME280;46415;47.536;19.066;2023-02-21T13:04:59;100263.97;;;14.22;67.33
60583;BME280;46415;47.536;19.066;2023-02-21T13:08:18;100264.59;;;14.26;67.19
60583;BME280;46415;47.536;19.066;2023-02-21T13:11:31;100267.78;;;14.17;67.23
60583;BME280;46415;47.536;19.066;2023-02-21T13:14:48;100277.09;;;14.21;66.46
60583;BME280;46415;47.536;19.066;2023-02-21T13:18:26;100284.87;;;15.99;59.05
60583;BME280;46415;47.536;19.066;2023-02-21T13:22:00;100289.31;;;15.59;58.45
60583;BME280;46415;47.536;19.066;2023-02-21T13:28:37;100274.63;;;14.48;64.09
60583;BME280;46415;47.536;19.066;2023-02-21T13:31:41;100272.91;;;14.75;64.13
60583;BME280;46415;47.536;19.066;2023-02-21T13:34:47;100274.84;;;15.00;62.28
60583;BME280;46415;47.536;19.066;2023-02-21T13:37:55;100272.75;;;14.50;64.21
60583;BME280;46415;47.536;19.066;2023-02-21T13:41:08;100269.66;;;14.29;65.08
60583;BME280;46415;47.536;19.066;2023-02-21T13:44:41;100272.00;;;13.89;66.70
60583;BME280;46415;47.536;19.066;2023-02-21T13:51:50;100268.69;;;14.02;67.33
60583;BME280;46415;47.536;19.066;2023-02-21T14:04:57;100259.97;;;14.45;64.50
60583;BME280;46415;47.536;19.066;2023-02-21T14:11:42;100264.31;;;14.73;63.94
60583;BME280;46415;47.536;19.066;2023-02-21T14:14:46;100267.87;;;15.40;61.32
60583;BME280;46415;47.536;19.066;2023-02-21T14:17:54;100272.94;;;16.08;58.41
60583;BME280;46415;47.536;19.066;2023-02-21T14:20:57;100281.34;;;17.71;54.12
60583;BME280;46415;47.536;19.066;2023-02-21T14:24:19;100280.78;;;19.35;48.08
60583;BME280;46415;47.536;19.066;2023-02-21T14:30:32;100282.16;;;19.50;46.53
60583;BME280;46415;47.536;19.066;2023-02-21T14:33:35;100268.09;;;19.29;46.60
60583;BME280;46415;47.536;19.066;2023-02-21T14:36:39;100280.19;;;18.88;48.27
60583;BME280;46415;47.536;19.066;2023-02-21T14:39:48;100273.75;;;19.24;47.17
60583;BME280;46415;47.536;19.066;2023-02-21T14:52:52;100277.66;;;14.83;59.91
60583;BME280;46415;47.536;19.066;2023-02-21T15:06:10;100262.34;;;13.92;65.25
60583;BME280;46415;47.536;19.066;2023-02-21T15:09:20;100279.34;;;13.69;66.19
60583;BME280;46415;47.536;19.066;2023-02-21T15:12:22;100277.56;;;13.39;67.88
60583;BME280;46415;47.536;19.066;2023-02-21T15:15:31;100270.81;;;13.35;68.36
60583;BME280;46415;47.536;19.066;2023-02-21T15:18:40;100277.06;;;13.33;68.52
60583;BME280;46415;47.536;19.066;2023-02-21T15:21:44;100260.44;;;13.20;69.17
60583;BME280;46415;47.536;19.066;2023-02-21T15:25:11;100261.75;;;13.11;69.63
60583;BME280;46415;47.536;19.066;2023-02-21T15:28:22;100264.09;;;13.00;70.52
60583;BME280;46415;47.536;19.066;2023-02-21T15:31:25;100251.25;;;12.97;71.37
60583;BME280;46415;47.536;19.066;2023-02-21T15:34:39;100260.41;;;12.88;71.73
60583;BME280;46415;47.536;19.066;2023-02-21T15:37:44;100260.41;;;12.88;71.52
60583;BME280;46415;47.536;19.066;2023-02-21T15:40:49;100258.06;;;12.84;71.54
60583;BME280;46415;47.536;19.066;2023-02-21T15:44:25;100255.03;;;12.76;71.88
60583;BME280;46415;47.536;19.066;2023-02-21T15:47:28;100267.37;;;12.72;72.14
60583;BME280;46415;47.536;19.066;2023-02-21T15:50:44;100270.72;;;12.58;73.28
60583;BME280;46415;47.536;19.066;2023-02-21T15:54:21;100277.69;;;12.42;74.00
60583;BME280;46415;47.536;19.066;2023-02-21T15:57:26;100283.88;;;12.40;73.84
60583;BME280;46415;47.536;19.066;2023-02-21T16:00:32;100279.75;;;12.36;74.14
60583;BME280;46415;47.536;19.066;2023-02-21T16:07:00;100288.44;;;12.19;75.30
60583;BME280;46415;47.536;19.066;2023-02-21T16:10:08;100290.69;;;12.09;76.01
60583;BME280;46415;47.536;19.066;2023-02-21T16:13:12;100297.53;;;12.10;76.04
60583;BME280;46415;47.536;19.066;2023-02-21T16:16:16;100304.81;;;12.04;76.43
60583;BME280;46415;47.536;19.066;2023-02-21T16:19:20;100311.34;;;11.95;76.77
60583;BME280;46415;47.536;19.066;2023-02-21T16:22:37;100304.69;;;11.90;77.47
60583;BME280;46415;47.536;19.066;2023-02-21T16:29:14;100312.94;;;11.80;78.62
60583;BME280;46415;47.536;19.066;2023-02-21T16:32:19;100313.66;;;11.84;78.38
60583;BME280;46415;47.536;19.066;2023-02-21T16:35:24;100315.53;;;11.98;77.34
60583;BME280;46415;47.536;19.066;2023-02-21T16:38:27;100323.81;;;12.06;76.92
60583;BME280;46415;47.536;19.066;2023-02-21T16:41:31;100334.69;;;11.97;77.30
60583;BME280;46415;47.536;19.066;2023-02-21T16:44:33;100325.25;;;12.11;76.82
60583;BME280;46415;47.536;19.066;2023-02-21T16:47:36;100325.50;;;12.07;76.97
60583;BME280;46415;47.536;19.066;2023-02-21T16:50:39;100335.97;;;12.05;77.40
60583;BME280;46415;47.536;19.066;2023-02-21T16:53:42;100335.81;;;12.08;77.18
60583;BME280;46415;47.536;19.066;2023-02-21T16:56:49;100326.25;;;12.09;77.22
60583;BME280;46415;47.536;19.066;2023-02-21T16:59:53;100323.19;;;12.01;77.37
60583;BME280;46415;47.536;19.066;2023-02-21T17:02:56;100331.06;;;11.99;77.80
60583;BME280;46415;47.536;19.066;2023-02-21T17:06:00;100331.13;;;11.98;77.69
60583;BME280;46415;47.536;19.066;2023-02-21T17:09:03;100336.13;;;12.02;77.48
60583;BME280;46415;47.536;19.066;2023-02-21T17:12:06;100336.88;;;12.04;77.47
60583;BME280;46415;47.536;19.066;2023-02-21T17:15:09;100334.97;;;12.08;77.03
60583;BME280;46415;47.536;19.066;2023-02-21T17:18:13;100347.81;;;12.11;77.24
60583;BME280;46415;47.536;19.066;2023-02-21T17:21:16;100340.31;;;12.05;77.65
60583;BME280;46415;47.536;19.066;2023-02-21T17:24:20;100346.44;;;12.04;77.58
60583;BME280;46415;47.536;19.066;2023-02-21T17:27:22;100345.63;;;12.03;78.36
60583;BME280;46415;47.536;19.066;2023-02-21T17:30:27;100345.47;;;12.06;77.62
60583;BME280;46415;47.536;19.066;2023-02-21T17:33:30;100343.94;;;12.02;77.79
60583;BME280;46415;47.536;19.066;2023-02-21T17:36:33;100348.06;;;12.06;77.72
60583;BME280;46415;47.536;19.066;2023-02-21T17:39:36;100358.53;;;12.05;77.82
60583;BME280;46415;47.536;19.066;2023-02-21T17:42:40;100346.84;;;11.96;78.09
60583;BME280;46415;47.536;19.066;2023-02-21T17:45:43;100350.13;;;12.00;78.01
60583;BME280;46415;47.536;19.066;2023-02-21T17:48:48;100358.69;;;12.02;77.71
60583;BME280;46415;47.536;19.066;2023-02-21T17:51:51;100348.22;;;12.03;77.38
60583;BME280;46415;47.536;19.066;2023-02-21T17:54:54;100348.22;;;12.03;77.29
60583;BME280;46415;47.536;19.066;2023-02-21T17:57:57;100347.69;;;12.14;76.71
60583;BME280;46415;47.536;19.066;2023-02-21T18:01:01;100358.84;;;12.16;76.49
60583;BME280;46415;47.536;19.066;2023-02-21T18:04:05;100354.09;;;12.07;76.87
60583;BME280;46415;47.536;19.066;2023-02-21T18:07:10;100359.00;;;12.13;76.69
60583;BME280;46415;47.536;19.066;2023-02-21T18:10:16;100354.09;;;12.07;76.95
60583;BME280;46415;47.536;19.066;2023-02-21T18:13:21;100347.69;;;12.14;76.54
60583;BME280;46415;47.536;19.066;2023-02-21T18:16:24;100340.50;;;12.02;77.21
60583;BME280;46415;47.536;19.066;2023-02-21T18:19:27;100346.06;;;12.11;76.71
60583;BME280;46415;47.536;19.066;2023-02-21T18:22:31;100344.00;;;12.01;77.10
60583;BME280;46415;47.536;19.066;2023-02-21T18:25:34;100335.13;;;12.05;76.83
60583;BME280;46415;47.536;19.066;2023-02-21T18:28:38;100337.34;;;11.95;77.42
60583;BME280;46415;47.536;19.066;2023-02-21T18:31:41;100343.09;;;12.02;76.96